sensor_id;sensor_type;location;lat;lon;timestamp;P1;durP1;ratioP1;P2;durP2;ratioP2
61471;SDS011;47337;54.068;12.114;2024-01-10T00:01:07;31.92;;;16.17;;
61471;SDS011;47337;54.068;12.114;2024-01-10T00:03:32;30.50;;;15.50;;
61471;SDS011;47337;54.068;12.114;2024-01-10T00:05:57;33.75;;;16.50;;
61471;SDS011;47337;54.068;12.114;2024-01-10T00:08:25;29.95;;;15.32;;
61471;SDS011;47337;54.068;12.114;2024-01-10T00:10:53;29.98;;;14.57;;
61471;SDS011;47337;54.068;12.114;2024-01-10T00:13:19;31.00;;;15.52;;
61471;SDS011;47337;54.068;12.114;2024-01-10T00:15:45;32.25;;;14.80;;
61471;SDS011;47337;54.068;12.114;2024-01-10T00:18:10;35.45;;;16.15;;
61471;SDS011;47337;54.068;12.114;2024-01-10T00:20:35;33.63;;;16.25;;
61471;SDS011;47337;54.068;12.114;2024-01-10T00:23:03;30.77;;;15.90;;
61471;SDS011;47337;54.068;12.114;2024-01-10T00:25:29;33.67;;;15.35;;
61471;SDS011;47337;54.068;12.114;2024-01-10T00:27:55;32.47;;;15.30;;
61471;SDS011;47337;54.068;12.114;2024-01-10T00:30:20;32.33;;;15.52;;
61471;SDS011;47337;54.068;12.114;2024-01-10T00:32:46;28.48;;;14.70;;
61471;SDS011;47337;54.068;12.114;2024-01-10T00:35:11;35.80;;;15.48;;
61471;SDS011;47337;54.068;12.114;2024-01-10T00:37:37;30.13;;;15.38;;
61471;SDS011;47337;54.068;12.114;2024-01-10T00:40:02;30.35;;;14.43;;
61471;SDS011;47337;54.068;12.114;2024-01-10T00:42:30;35.17;;;15.43;;
61471;SDS011;47337;54.068;12.114;2024-01-10T00:44:55;31.92;;;15.88;;
61471;SDS011;47337;54.068;12.114;2024-01-10T00:47:20;31.88;;;16.02;;
61471;SDS011;47337;54.068;12.114;2024-01-10T00:49:45;32.20;;;15.25;;
61471;SDS011;47337;54.068;12.114;2024-01-10T00:52:11;35.08;;;15.13;;
61471;SDS011;47337;54.068;12.114;2024-01-10T00:54:36;35.40;;;16.10;;
61471;SDS011;47337;54.068;12.114;2024-01-10T00:57:01;29.10;;;14.65;;
61471;SDS011;47337;54.068;12.114;2024-01-10T00:59:29;31.98;;;15.20;;
61471;SDS011;47337;54.068;12.114;2024-01-10T01:01:54;32.25;;;15.38;;
61471;SDS011;47337;54.068;12.114;2024-01-10T01:04:19;30.92;;;15.38;;
61471;SDS011;47337;54.068;12.114;2024-01-10T01:06:45;29.25;;;13.88;;
61471;SDS011;47337;54.068;12.114;2024-01-10T01:09:10;30.98;;;15.75;;
61471;SDS011;47337;54.068;12.114;2024-01-10T01:11:37;32.72;;;14.85;;
61471;SDS011;47337;54.068;12.114;2024-01-10T01:14:02;29.00;;;14.77;;
61471;SDS011;47337;54.068;12.114;2024-01-10T01:16:28;32.03;;;15.23;;
61471;SDS011;47337;54.068;12.114;2024-01-10T01:18:55;27.10;;;14.55;;
61471;SDS011;47337;54.068;12.114;2024-01-10T01:21:23;26.00;;;14.00;;
61471;SDS011;47337;54.068;12.114;2024-01-10T01:23:48;29.48;;;14.77;;
61471;SDS011;47337;54.068;12.114;2024-01-10T01:26:14;31.20;;;14.43;;
61471;SDS011;47337;54.068;12.114;2024-01-10T01:28:39;31.05;;;14.88;;
61471;SDS011;47337;54.068;12.114;2024-01-10T01:31:04;29.73;;;14.23;;
61471;SDS011;47337;54.068;12.114;2024-01-10T01:33:30;30.67;;;14.10;;
61471;SDS011;47337;54.068;12.114;2024-01-10T01:35:55;33.08;;;14.82;;
61471;SDS011;47337;54.068;12.114;2024-01-10T01:38:23;32.08;;;14.75;;
61471;SDS011;47337;54.068;12.114;2024-01-10T01:40:48;29.70;;;14.20;;
61471;SDS011;47337;54.068;12.114;2024-01-10T01:43:20;29.08;;;14.88;;
61471;SDS011;47337;54.068;12.114;2024-01-10T01:45:50;26.90;;;13.88;;
61471;SDS011;47337;54.068;12.114;2024-01-10T01:48:16;31.98;;;14.05;;
61471;SDS011;47337;54.068;12.114;2024-01-10T01:50:41;27.85;;;14.70;;
61471;SDS011;47337;54.068;12.114;2024-01-10T01:53:06;28.67;;;13.52;;
61471;SDS011;47337;54.068;12.114;2024-01-10T01:55:32;26.25;;;13.63;;
61471;SDS011;47337;54.068;12.114;2024-01-10T01:57:57;31.70;;;16.00;;
61471;SDS011;47337;54.068;12.114;2024-01-10T02:00:23;29.50;;;15.13;;
61471;SDS011;47337;54.068;12.114;2024-01-10T02:02:48;27.42;;;14.45;;
61471;SDS011;47337;54.068;12.114;2024-01-10T02:05:14;28.95;;;14.52;;
61471;SDS011;47337;54.068;12.114;2024-01-10T02:07:40;26.40;;;13.85;;
61471;SDS011;47337;54.068;12.114;2024-01-10T02:10:05;29.70;;;14.95;;
61471;SDS011;47337;54.068;12.114;2024-01-10T02:12:32;29.88;;;13.80;;
61471;SDS011;47337;54.068;12.114;2024-01-10T02:14:59;23.08;;;13.65;;
61471;SDS011;47337;54.068;12.114;2024-01-10T02:17:25;26.70;;;14.38;;
61471;SDS011;47337;54.068;12.114;2024-01-10T02:20:07;27.40;;;13.73;;
61471;SDS011;47337;54.068;12.114;2024-01-10T02:22:32;25.92;;;12.77;;
61471;SDS011;47337;54.068;12.114;2024-01-10T02:24:57;30.15;;;14.02;;
61471;SDS011;47337;54.068;12.114;2024-01-10T02:27:22;29.52;;;14.13;;
61471;SDS011;47337;54.068;12.114;2024-01-10T02:29:48;28.02;;;13.90;;
61471;SDS011;47337;54.068;12.114;2024-01-10T02:32:13;26.05;;;13.05;;
61471;SDS011;47337;54.068;12.114;2024-01-10T02:34:38;30.00;;;15.25;;
61471;SDS011;47337;54.068;12.114;2024-01-10T02:37:03;27.40;;;13.15;;
61471;SDS011;47337;54.068;12.114;2024-01-10T02:39:29;26.67;;;13.32;;
61471;SDS011;47337;54.068;12.114;2024-01-10T02:41:54;28.10;;;13.68;;
61471;SDS011;47337;54.068;12.114;2024-01-10T02:44:19;26.52;;;14.18;;
61471;SDS011;47337;54.068;12.114;2024-01-10T02:46:44;25.83;;;13.30;;
61471;SDS011;47337;54.068;12.114;2024-01-10T02:49:10;28.33;;;13.15;;
61471;SDS011;47337;54.068;12.114;2024-01-10T02:51:35;24.65;;;13.40;;
61471;SDS011;47337;54.068;12.114;2024-01-10T02:54:00;26.55;;;13.20;;
61471;SDS011;47337;54.068;12.114;2024-01-10T02:56:25;25.40;;;12.90;;
61471;SDS011;47337;54.068;12.114;2024-01-10T02:58:51;22.90;;;12.15;;
61471;SDS011;47337;54.068;12.114;2024-01-10T03:01:16;27.20;;;13.93;;
61471;SDS011;47337;54.068;12.114;2024-01-10T03:03:41;26.58;;;14.02;;
61471;SDS011;47337;54.068;12.114;2024-01-10T03:06:06;28.10;;;14.27;;
61471;SDS011;47337;54.068;12.114;2024-01-10T03:08:31;26.33;;;13.57;;
61471;SDS011;47337;54.068;12.114;2024-01-10T03:10:57;28.48;;;14.07;;
61471;SDS011;47337;54.068;12.114;2024-01-10T03:13:22;26.30;;;13.45;;
61471;SDS011;47337;54.068;12.114;2024-01-10T03:15:47;26.92;;;13.00;;
61471;SDS011;47337;54.068;12.114;2024-01-10T03:18:13;27.67;;;14.20;;
61471;SDS011;47337;54.068;12.114;2024-01-10T03:20:38;28.52;;;13.82;;
61471;SDS011;47337;54.068;12.114;2024-01-10T03:23:03;30.27;;;14.27;;
61471;SDS011;47337;54.068;12.114;2024-01-10T03:25:28;30.63;;;14.70;;
61471;SDS011;47337;54.068;12.114;2024-01-10T03:27:54;28.67;;;14.38;;
61471;SDS011;47337;54.068;12.114;2024-01-10T03:30:19;28.10;;;14.75;;
61471;SDS011;47337;54.068;12.114;2024-01-10T03:32:44;30.23;;;14.75;;
61471;SDS011;47337;54.068;12.114;2024-01-10T03:35:10;28.48;;;15.48;;
61471;SDS011;47337;54.068;12.114;2024-01-10T03:37:35;29.42;;;14.93;;
61471;SDS011;47337;54.068;12.114;2024-01-10T03:40:00;31.60;;;15.38;;
61471;SDS011;47337;54.068;12.114;2024-01-10T03:42:25;30.00;;;14.75;;
61471;SDS011;47337;54.068;12.114;2024-01-10T03:44:51;27.27;;;14.88;;
61471;SDS011;47337;54.068;12.114;2024-01-10T03:47:16;25.73;;;13.93;;
61471;SDS011;47337;54.068;12.114;2024-01-10T03:49:41;30.85;;;14.80;;
61471;SDS011;47337;54.068;12.114;2024-01-10T03:52:07;31.33;;;15.10;;
61471;SDS011;47337;54.068;12.114;2024-01-10T03:54:34;33.20;;;16.17;;
61471;SDS011;47337;54.068;12.114;2024-01-10T03:57:00;30.35;;;14.80;;
61471;SDS011;47337;54.068;12.114;2024-01-10T03:59:27;35.85;;;16.77;;
61471;SDS011;47337;54.068;12.114;2024-01-10T04:01:53;30.00;;;16.67;;
61471;SDS011;47337;54.068;12.114;2024-01-10T04:04:18;30.52;;;16.25;;
61471;SDS011;47337;54.068;12.114;2024-01-10T04:06:43;32.42;;;16.23;;
61471;SDS011;47337;54.068;12.114;2024-01-10T04:09:08;32.50;;;16.10;;
61471;SDS011;47337;54.068;12.114;2024-01-10T04:11:38;36.35;;;17.15;;
61471;SDS011;47337;54.068;12.114;2024-01-10T04:14:03;31.10;;;15.40;;
61471;SDS011;47337;54.068;12.114;2024-01-10T04:16:29;31.83;;;16.35;;
61471;SDS011;47337;54.068;12.114;2024-01-10T04:18:54;32.50;;;16.02;;
61471;SDS011;47337;54.068;12.114;2024-01-10T04:21:22;32.40;;;16.30;;
61471;SDS011;47337;54.068;12.114;2024-01-10T04:23:49;33.40;;;16.15;;
61471;SDS011;47337;54.068;12.114;2024-01-10T04:26:16;34.00;;;16.23;;
61471;SDS011;47337;54.068;12.114;2024-01-10T04:28:42;32.75;;;15.98;;
61471;SDS011;47337;54.068;12.114;2024-01-10T04:31:09;36.13;;;17.38;;
61471;SDS011;47337;54.068;12.114;2024-01-10T04:33:35;34.55;;;16.75;;
61471;SDS011;47337;54.068;12.114;2024-01-10T04:36:00;43.20;;;17.50;;
61471;SDS011;47337;54.068;12.114;2024-01-10T04:38:25;35.70;;;15.90;;
61471;SDS011;47337;54.068;12.114;2024-01-10T04:40:51;35.40;;;17.27;;
61471;SDS011;47337;54.068;12.114;2024-01-10T04:43:16;35.10;;;16.33;;
61471;SDS011;47337;54.068;12.114;2024-01-10T04:45:42;35.55;;;16.52;;
61471;SDS011;47337;54.068;12.114;2024-01-10T04:48:07;36.33;;;16.95;;
61471;SDS011;47337;54.068;12.114;2024-01-10T04:50:32;38.47;;;17.23;;
61471;SDS011;47337;54.068;12.114;2024-01-10T04:53:00;30.30;;;14.77;;
61471;SDS011;47337;54.068;12.114;2024-01-10T04:55:25;33.08;;;15.95;;
61471;SDS011;47337;54.068;12.114;2024-01-10T04:57:50;33.70;;;16.00;;
61471;SDS011;47337;54.068;12.114;2024-01-10T05:00:15;37.42;;;17.15;;
61471;SDS011;47337;54.068;12.114;2024-01-10T05:02:41;37.45;;;16.65;;
61471;SDS011;47337;54.068;12.114;2024-01-10T05:05:06;36.75;;;16.70;;
61471;SDS011;47337;54.068;12.114;2024-01-10T05:07:31;40.60;;;16.85;;
61471;SDS011;47337;54.068;12.114;2024-01-10T05:09:57;39.85;;;17.23;;
61471;SDS011;47337;54.068;12.114;2024-01-10T05:12:24;41.95;;;18.08;;
61471;SDS011;47337;54.068;12.114;2024-01-10T05:14:50;36.38;;;16.38;;
61471;SDS011;47337;54.068;12.114;2024-01-10T05:17:15;35.40;;;17.30;;
61471;SDS011;47337;54.068;12.114;2024-01-10T05:19:40;38.13;;;17.73;;
61471;SDS011;47337;54.068;12.114;2024-01-10T05:22:06;40.50;;;17.85;;
61471;SDS011;47337;54.068;12.114;2024-01-10T05:24:33;41.67;;;18.13;;
61471;SDS011;47337;54.068;12.114;2024-01-10T05:26:58;42.70;;;17.33;;
61471;SDS011;47337;54.068;12.114;2024-01-10T05:29:24;38.17;;;17.25;;
61471;SDS011;47337;54.068;12.114;2024-01-10T05:31:49;40.45;;;18.27;;
61471;SDS011;47337;54.068;12.114;2024-01-10T05:34:15;46.10;;;18.30;;
61471;SDS011;47337;54.068;12.114;2024-01-10T05:36:44;41.03;;;16.83;;
61471;SDS011;47337;54.068;12.114;2024-01-10T05:39:12;44.50;;;17.80;;
61471;SDS011;47337;54.068;12.114;2024-01-10T05:41:43;40.13;;;18.00;;
61471;SDS011;47337;54.068;12.114;2024-01-10T05:44:08;40.63;;;17.60;;
61471;SDS011;47337;54.068;12.114;2024-01-10T05:46:36;42.42;;;18.80;;
61471;SDS011;47337;54.068;12.114;2024-01-10T05:49:02;39.22;;;17.77;;
61471;SDS011;47337;54.068;12.114;2024-01-10T05:51:31;42.97;;;17.73;;
61471;SDS011;47337;54.068;12.114;2024-01-10T05:53:57;38.20;;;16.83;;
61471;SDS011;47337;54.068;12.114;2024-01-10T05:56:22;42.97;;;16.45;;
61471;SDS011;47337;54.068;12.114;2024-01-10T05:58:48;42.03;;;16.92;;
61471;SDS011;47337;54.068;12.114;2024-01-10T06:01:16;43.55;;;16.95;;
61471;SDS011;47337;54.068;12.114;2024-01-10T06:03:41;41.00;;;18.90;;
61471;SDS011;47337;54.068;12.114;2024-01-10T06:06:06;42.85;;;19.17;;
61471;SDS011;47337;54.068;12.114;2024-01-10T06:08:31;36.70;;;17.42;;
61471;SDS011;47337;54.068;12.114;2024-01-10T06:11:02;41.45;;;17.80;;
61471;SDS011;47337;54.068;12.114;2024-01-10T06:13:31;39.15;;;17.83;;
61471;SDS011;47337;54.068;12.114;2024-01-10T06:15:56;43.60;;;18.50;;
61471;SDS011;47337;54.068;12.114;2024-01-10T06:18:21;48.28;;;18.00;;
61471;SDS011;47337;54.068;12.114;2024-01-10T06:20:46;48.83;;;19.40;;
61471;SDS011;47337;54.068;12.114;2024-01-10T06:23:16;44.72;;;18.88;;
61471;SDS011;47337;54.068;12.114;2024-01-10T06:25:42;44.50;;;18.08;;
61471;SDS011;47337;54.068;12.114;2024-01-10T06:28:07;46.63;;;20.00;;
61471;SDS011;47337;54.068;12.114;2024-01-10T06:30:32;48.72;;;20.15;;
61471;SDS011;47337;54.068;12.114;2024-01-10T06:32:58;45.95;;;18.50;;
61471;SDS011;47337;54.068;12.114;2024-01-10T06:35:23;44.45;;;18.95;;
61471;SDS011;47337;54.068;12.114;2024-01-10T06:37:48;44.03;;;19.20;;
61471;SDS011;47337;54.068;12.114;2024-01-10T06:40:13;46.20;;;18.88;;
61471;SDS011;47337;54.068;12.114;2024-01-10T06:42:39;43.97;;;18.13;;
61471;SDS011;47337;54.068;12.114;2024-01-10T06:45:05;50.75;;;18.70;;
61471;SDS011;47337;54.068;12.114;2024-01-10T06:47:32;47.13;;;18.45;;
61471;SDS011;47337;54.068;12.114;2024-01-10T06:49:58;49.42;;;18.30;;
61471;SDS011;47337;54.068;12.114;2024-01-10T06:52:24;45.15;;;18.05;;
61471;SDS011;47337;54.068;12.114;2024-01-10T06:54:49;48.15;;;18.45;;
61471;SDS011;47337;54.068;12.114;2024-01-10T06:57:19;44.08;;;17.17;;
61471;SDS011;47337;54.068;12.114;2024-01-10T06:59:44;45.25;;;17.00;;
61471;SDS011;47337;54.068;12.114;2024-01-10T07:02:09;47.42;;;16.65;;
61471;SDS011;47337;54.068;12.114;2024-01-10T07:04:37;53.70;;;19.77;;
61471;SDS011;47337;54.068;12.114;2024-01-10T07:07:02;51.63;;;19.23;;
61471;SDS011;47337;54.068;12.114;2024-01-10T07:09:27;47.30;;;18.42;;
61471;SDS011;47337;54.068;12.114;2024-01-10T07:11:53;52.15;;;19.20;;
61471;SDS011;47337;54.068;12.114;2024-01-10T07:14:20;49.67;;;17.85;;
61471;SDS011;47337;54.068;12.114;2024-01-10T07:16:45;45.97;;;17.70;;
61471;SDS011;47337;54.068;12.114;2024-01-10T07:19:12;45.95;;;17.55;;
61471;SDS011;47337;54.068;12.114;2024-01-10T07:21:38;46.30;;;18.83;;
61471;SDS011;47337;54.068;12.114;2024-01-10T07:24:04;51.13;;;18.67;;
61471;SDS011;47337;54.068;12.114;2024-01-10T07:26:29;49.63;;;18.25;;
61471;SDS011;47337;54.068;12.114;2024-01-10T07:28:54;44.03;;;17.15;;
61471;SDS011;47337;54.068;12.114;2024-01-10T07:31:21;51.08;;;19.52;;
61471;SDS011;47337;54.068;12.114;2024-01-10T07:33:48;44.45;;;18.58;;
61471;SDS011;47337;54.068;12.114;2024-01-10T07:36:13;49.47;;;18.55;;
61471;SDS011;47337;54.068;12.114;2024-01-10T07:38:38;50.55;;;17.88;;
61471;SDS011;47337;54.068;12.114;2024-01-10T07:41:04;53.25;;;18.10;;
61471;SDS011;47337;54.068;12.114;2024-01-10T07:43:29;52.67;;;19.00;;
61471;SDS011;47337;54.068;12.114;2024-01-10T07:45:56;47.08;;;17.45;;
61471;SDS011;47337;54.068;12.114;2024-01-10T07:48:21;52.38;;;19.02;;
61471;SDS011;47337;54.068;12.114;2024-01-10T07:50:47;50.03;;;17.50;;
61471;SDS011;47337;54.068;12.114;2024-01-10T07:53:12;50.33;;;17.55;;
61471;SDS011;47337;54.068;12.114;2024-01-10T07:55:38;53.80;;;19.52;;
61471;SDS011;47337;54.068;12.114;2024-01-10T07:58:05;49.08;;;17.17;;
61471;SDS011;47337;54.068;12.114;2024-01-10T08:00:33;55.80;;;20.20;;
61471;SDS011;47337;54.068;12.114;2024-01-10T08:02:59;50.45;;;18.13;;
61471;SDS011;47337;54.068;12.114;2024-01-10T08:05:24;53.22;;;18.27;;
61471;SDS011;47337;54.068;12.114;2024-01-10T08:07:49;61.50;;;20.20;;
61471;SDS011;47337;54.068;12.114;2024-01-10T08:10:15;53.83;;;18.60;;
61471;SDS011;47337;54.068;12.114;2024-01-10T08:12:40;51.90;;;19.52;;
61471;SDS011;47337;54.068;12.114;2024-01-10T08:15:09;48.00;;;17.50;;
61471;SDS011;47337;54.068;12.114;2024-01-10T08:17:35;52.55;;;19.00;;
61471;SDS011;47337;54.068;12.114;2024-01-10T08:20:02;52.20;;;18.20;;
61471;SDS011;47337;54.068;12.114;2024-01-10T08:22:29;55.00;;;18.08;;
61471;SDS011;47337;54.068;12.114;2024-01-10T08:24:54;50.55;;;16.38;;
61471;SDS011;47337;54.068;12.114;2024-01-10T08:27:21;47.60;;;17.15;;
61471;SDS011;47337;54.068;12.114;2024-01-10T08:29:46;53.67;;;17.13;;
61471;SDS011;47337;54.068;12.114;2024-01-10T08:32:11;57.92;;;18.33;;
61471;SDS011;47337;54.068;12.114;2024-01-10T08:34:36;47.60;;;16.98;;
61471;SDS011;47337;54.068;12.114;2024-01-10T08:37:02;53.50;;;17.58;;
61471;SDS011;47337;54.068;12.114;2024-01-10T08:39:27;54.95;;;17.85;;
61471;SDS011;47337;54.068;12.114;2024-01-10T08:41:58;65.90;;;19.73;;
61471;SDS011;47337;54.068;12.114;2024-01-10T08:44:23;53.17;;;18.13;;
61471;SDS011;47337;54.068;12.114;2024-01-10T08:46:48;50.83;;;17.33;;
61471;SDS011;47337;54.068;12.114;2024-01-10T08:49:16;47.70;;;16.80;;
61471;SDS011;47337;54.068;12.114;2024-01-10T08:51:41;51.03;;;17.92;;
61471;SDS011;47337;54.068;12.114;2024-01-10T08:54:09;52.00;;;17.50;;
61471;SDS011;47337;54.068;12.114;2024-01-10T08:56:37;46.22;;;15.18;;
61471;SDS011;47337;54.068;12.114;2024-01-10T08:59:02;43.15;;;16.15;;
61471;SDS011;47337;54.068;12.114;2024-01-10T09:01:28;46.10;;;15.75;;
61471;SDS011;47337;54.068;12.114;2024-01-10T09:03:54;44.58;;;15.60;;
61471;SDS011;47337;54.068;12.114;2024-01-10T09:06:19;39.00;;;15.07;;
61471;SDS011;47337;54.068;12.114;2024-01-10T09:08:46;43.63;;;15.40;;
61471;SDS011;47337;54.068;12.114;2024-01-10T09:11:11;45.00;;;15.95;;
61471;SDS011;47337;54.068;12.114;2024-01-10T09:13:36;37.20;;;14.70;;
61471;SDS011;47337;54.068;12.114;2024-01-10T09:16:03;35.95;;;14.43;;
61471;SDS011;47337;54.068;12.114;2024-01-10T09:18:28;33.65;;;13.20;;
61471;SDS011;47337;54.068;12.114;2024-01-10T09:20:54;32.70;;;12.05;;
61471;SDS011;47337;54.068;12.114;2024-01-10T09:23:21;35.45;;;14.50;;
61471;SDS011;47337;54.068;12.114;2024-01-10T09:25:47;37.30;;;14.25;;
61471;SDS011;47337;54.068;12.114;2024-01-10T09:28:12;42.05;;;14.05;;
61471;SDS011;47337;54.068;12.114;2024-01-10T09:30:37;39.30;;;14.93;;
61471;SDS011;47337;54.068;12.114;2024-01-10T09:33:04;41.85;;;15.27;;
61471;SDS011;47337;54.068;12.114;2024-01-10T09:35:29;37.10;;;13.25;;
61471;SDS011;47337;54.068;12.114;2024-01-10T09:37:54;43.55;;;16.17;;
61471;SDS011;47337;54.068;12.114;2024-01-10T09:40:20;44.47;;;15.57;;
61471;SDS011;47337;54.068;12.114;2024-01-10T09:42:52;43.43;;;15.83;;
61471;SDS011;47337;54.068;12.114;2024-01-10T09:45:19;42.65;;;15.63;;
61471;SDS011;47337;54.068;12.114;2024-01-10T09:47:48;39.47;;;14.90;;
61471;SDS011;47337;54.068;12.114;2024-01-10T09:50:14;40.15;;;15.52;;
61471;SDS011;47337;54.068;12.114;2024-01-10T09:52:49;42.30;;;14.85;;
61471;SDS011;47337;54.068;12.114;2024-01-10T09:55:15;37.40;;;14.38;;
61471;SDS011;47337;54.068;12.114;2024-01-10T09:57:41;38.90;;;14.40;;
61471;SDS011;47337;54.068;12.114;2024-01-10T10:00:08;38.00;;;14.52;;
61471;SDS011;47337;54.068;12.114;2024-01-10T10:02:36;36.53;;;14.57;;
61471;SDS011;47337;54.068;12.114;2024-01-10T10:05:03;40.33;;;14.93;;
61471;SDS011;47337;54.068;12.114;2024-01-10T10:07:29;47.83;;;15.35;;
61471;SDS011;47337;54.068;12.114;2024-01-10T10:09:57;37.65;;;13.95;;
61471;SDS011;47337;54.068;12.114;2024-01-10T10:12:24;35.90;;;14.25;;
61471;SDS011;47337;54.068;12.114;2024-01-10T10:15:12;36.83;;;13.60;;
61471;SDS011;47337;54.068;12.114;2024-01-10T10:17:39;37.40;;;14.32;;
61471;SDS011;47337;54.068;12.114;2024-01-10T10:20:11;39.63;;;13.95;;
61471;SDS011;47337;54.068;12.114;2024-01-10T10:22:38;32.38;;;13.57;;
61471;SDS011;47337;54.068;12.114;2024-01-10T10:25:04;38.70;;;13.75;;
61471;SDS011;47337;54.068;12.114;2024-01-10T10:27:29;36.10;;;13.48;;
61471;SDS011;47337;54.068;12.114;2024-01-10T10:29:54;37.30;;;14.27;;
61471;SDS011;47337;54.068;12.114;2024-01-10T10:32:20;33.20;;;12.93;;
61471;SDS011;47337;54.068;12.114;2024-01-10T10:34:45;36.35;;;14.60;;
61471;SDS011;47337;54.068;12.114;2024-01-10T10:37:11;37.97;;;16.20;;
61471;SDS011;47337;54.068;12.114;2024-01-10T10:39:36;28.00;;;12.00;;
61471;SDS011;47337;54.068;12.114;2024-01-10T10:42:03;34.10;;;13.90;;
61471;SDS011;47337;54.068;12.114;2024-01-10T10:44:29;34.22;;;13.40;;
61471;SDS011;47337;54.068;12.114;2024-01-10T10:46:59;32.83;;;13.43;;
61471;SDS011;47337;54.068;12.114;2024-01-10T10:49:28;33.13;;;13.55;;
61471;SDS011;47337;54.068;12.114;2024-01-10T10:51:57;31.83;;;12.95;;
61471;SDS011;47337;54.068;12.114;2024-01-10T10:54:23;35.58;;;13.75;;
61471;SDS011;47337;54.068;12.114;2024-01-10T10:56:52;32.15;;;12.48;;
61471;SDS011;47337;54.068;12.114;2024-01-10T10:59:19;35.80;;;13.27;;
61471;SDS011;47337;54.068;12.114;2024-01-10T11:01:44;34.40;;;12.43;;
61471;SDS011;47337;54.068;12.114;2024-01-10T11:04:12;32.28;;;12.93;;
61471;SDS011;47337;54.068;12.114;2024-01-10T11:06:39;30.05;;;12.65;;
61471;SDS011;47337;54.068;12.114;2024-01-10T11:09:05;33.58;;;12.25;;
61471;SDS011;47337;54.068;12.114;2024-01-10T11:14:09;30.17;;;13.43;;
61471;SDS011;47337;54.068;12.114;2024-01-10T11:16:43;32.35;;;12.95;;
61471;SDS011;47337;54.068;12.114;2024-01-10T11:24:30;34.17;;;12.68;;
61471;SDS011;47337;54.068;12.114;2024-01-10T11:27:11;31.60;;;13.52;;
61471;SDS011;47337;54.068;12.114;2024-01-10T11:29:39;32.80;;;12.65;;
61471;SDS011;47337;54.068;12.114;2024-01-10T11:32:14;30.75;;;11.13;;
61471;SDS011;47337;54.068;12.114;2024-01-10T11:34:55;33.53;;;13.50;;
61471;SDS011;47337;54.068;12.114;2024-01-10T11:37:22;30.88;;;12.77;;
61471;SDS011;47337;54.068;12.114;2024-01-10T11:39:47;32.47;;;12.75;;
61471;SDS011;47337;54.068;12.114;2024-01-10T11:42:23;33.58;;;12.95;;
61471;SDS011;47337;54.068;12.114;2024-01-10T11:44:49;32.03;;;12.77;;
61471;SDS011;47337;54.068;12.114;2024-01-10T11:47:18;31.83;;;12.95;;
61471;SDS011;47337;54.068;12.114;2024-01-10T11:49:57;31.27;;;12.60;;
61471;SDS011;47337;54.068;12.114;2024-01-10T11:52:22;31.52;;;12.68;;
61471;SDS011;47337;54.068;12.114;2024-01-10T11:54:50;31.65;;;13.13;;
61471;SDS011;47337;54.068;12.114;2024-01-10T11:57:19;33.53;;;11.88;;
61471;SDS011;47337;54.068;12.114;2024-01-10T11:59:46;32.60;;;11.98;;
61471;SDS011;47337;54.068;12.114;2024-01-10T12:02:11;30.02;;;12.57;;
61471;SDS011;47337;54.068;12.114;2024-01-10T12:04:39;31.45;;;13.02;;
61471;SDS011;47337;54.068;12.114;2024-01-10T12:07:06;24.88;;;11.32;;
61471;SDS011;47337;54.068;12.114;2024-01-10T12:09:32;25.02;;;10.57;;
61471;SDS011;47337;54.068;12.114;2024-01-10T12:11:58;30.13;;;11.93;;
61471;SDS011;47337;54.068;12.114;2024-01-10T12:14:23;29.63;;;11.95;;
61471;SDS011;47337;54.068;12.114;2024-01-10T12:16:50;31.92;;;12.48;;
61471;SDS011;47337;54.068;12.114;2024-01-10T12:19:15;26.42;;;10.07;;
61471;SDS011;47337;54.068;12.114;2024-01-10T12:21:41;26.73;;;11.35;;
61471;SDS011;47337;54.068;12.114;2024-01-10T12:24:06;28.48;;;12.52;;
61471;SDS011;47337;54.068;12.114;2024-01-10T12:26:31;26.20;;;11.73;;
61471;SDS011;47337;54.068;12.114;2024-01-10T12:28:58;31.00;;;13.18;;
61471;SDS011;47337;54.068;12.114;2024-01-10T12:31:24;28.40;;;12.00;;
61471;SDS011;47337;54.068;12.114;2024-01-10T12:34:00;29.90;;;11.98;;
61471;SDS011;47337;54.068;12.114;2024-01-10T12:36:25;25.88;;;12.73;;
61471;SDS011;47337;54.068;12.114;2024-01-10T12:38:53;27.27;;;12.00;;
61471;SDS011;47337;54.068;12.114;2024-01-10T12:41:19;25.13;;;12.13;;
61471;SDS011;47337;54.068;12.114;2024-01-10T12:43:54;26.05;;;11.77;;
61471;SDS011;47337;54.068;12.114;2024-01-10T12:46:20;24.58;;;10.38;;
61471;SDS011;47337;54.068;12.114;2024-01-10T12:48:45;22.50;;;11.35;;
61471;SDS011;47337;54.068;12.114;2024-01-10T12:51:22;23.73;;;10.90;;
61471;SDS011;47337;54.068;12.114;2024-01-10T12:53:47;25.55;;;10.98;;
61471;SDS011;47337;54.068;12.114;2024-01-10T12:56:13;26.63;;;11.70;;
61471;SDS011;47337;54.068;12.114;2024-01-10T12:58:39;27.25;;;10.90;;
61471;SDS011;47337;54.068;12.114;2024-01-10T13:01:04;23.50;;;11.43;;
61471;SDS011;47337;54.068;12.114;2024-01-10T13:03:32;22.70;;;10.60;;
61471;SDS011;47337;54.068;12.114;2024-01-10T13:05:57;25.13;;;10.65;;
61471;SDS011;47337;54.068;12.114;2024-01-10T13:08:23;28.02;;;11.38;;
61471;SDS011;47337;54.068;12.114;2024-01-10T13:10:48;24.25;;;10.75;;
61471;SDS011;47337;54.068;12.114;2024-01-10T13:13:14;29.35;;;11.13;;
61471;SDS011;47337;54.068;12.114;2024-01-10T13:15:39;23.65;;;10.52;;
61471;SDS011;47337;54.068;12.114;2024-01-10T13:18:05;28.58;;;11.73;;
61471;SDS011;47337;54.068;12.114;2024-01-10T13:20:31;28.85;;;12.05;;
61471;SDS011;47337;54.068;12.114;2024-01-10T13:22:57;25.48;;;11.77;;
61471;SDS011;47337;54.068;12.114;2024-01-10T13:25:22;26.02;;;11.38;;
61471;SDS011;47337;54.068;12.114;2024-01-10T13:27:51;27.13;;;11.45;;
61471;SDS011;47337;54.068;12.114;2024-01-10T13:30:17;31.83;;;12.27;;
61471;SDS011;47337;54.068;12.114;2024-01-10T13:32:43;28.77;;;11.75;;
61471;SDS011;47337;54.068;12.114;2024-01-10T13:35:08;27.15;;;12.60;;
61471;SDS011;47337;54.068;12.114;2024-01-10T13:37:33;27.33;;;11.27;;
61471;SDS011;47337;54.068;12.114;2024-01-10T13:39:59;28.25;;;12.15;;
61471;SDS011;47337;54.068;12.114;2024-01-10T13:42:24;23.08;;;11.35;;
61471;SDS011;47337;54.068;12.114;2024-01-10T13:44:50;28.13;;;12.32;;
61471;SDS011;47337;54.068;12.114;2024-01-10T13:47:17;26.42;;;12.13;;
61471;SDS011;47337;54.068;12.114;2024-01-10T13:49:45;30.60;;;11.75;;
61471;SDS011;47337;54.068;12.114;2024-01-10T13:52:10;31.80;;;13.27;;
61471;SDS011;47337;54.068;12.114;2024-01-10T13:54:36;30.73;;;13.13;;
61471;SDS011;47337;54.068;12.114;2024-01-10T13:57:02;32.08;;;13.38;;
61471;SDS011;47337;54.068;12.114;2024-01-10T13:59:27;31.52;;;13.50;;
61471;SDS011;47337;54.068;12.114;2024-01-10T14:01:52;31.92;;;13.18;;
61471;SDS011;47337;54.068;12.114;2024-01-10T14:04:17;32.85;;;13.40;;
61471;SDS011;47337;54.068;12.114;2024-01-10T14:06:42;31.15;;;13.38;;
61471;SDS011;47337;54.068;12.114;2024-01-10T14:09:08;29.38;;;11.93;;
61471;SDS011;47337;54.068;12.114;2024-01-10T14:11:35;28.13;;;12.50;;